createdAt,value
2018-09-16T00:00:56.017Z,1018.41
2018-09-16T00:01:56.001Z,1018.35
2018-09-16T00:02:55.987Z,1018.36
2018-09-16T00:03:55.963Z,1018.33
2018-09-16T00:04:55.945Z,1018.29
2018-09-16T00:05:55.936Z,1018.28
2018-09-16T00:06:55.911Z,1018.30
2018-09-16T00:07:55.892Z,1018.28
2018-09-16T00:08:55.871Z,1018.27
2018-09-16T00:09:55.867Z,1018.28
2018-09-16T00:10:55.835Z,1018.29
2018-09-16T00:11:55.818Z,1018.30
2018-09-16T00:12:55.798Z,1018.29
2018-09-16T00:13:55.784Z,1018.24
2018-09-16T00:14:55.762Z,1018.24
2018-09-16T00:15:55.742Z,1018.25
2018-09-16T00:16:55.754Z,1018.23
2018-09-16T00:17:55.712Z,1018.25
2018-09-16T00:18:55.687Z,1018.29
2018-09-16T00:19:55.670Z,1018.27
2018-09-16T00:20:55.668Z,1018.26
2018-09-16T00:21:55.639Z,1018.30
2018-09-16T00:22:55.616Z,1018.24
2018-09-16T00:23:55.596Z,1018.28
2018-09-16T00:24:55.588Z,1018.28
2018-09-16T00:25:55.562Z,1018.28
2018-09-16T00:26:55.540Z,1018.28
2018-09-16T00:27:55.521Z,1018.28
2018-09-16T00:28:55.526Z,1018.28
2018-09-16T00:29:55.487Z,1018.25
2018-09-16T00:30:55.468Z,1018.26
2018-09-16T00:31:55.449Z,1018.23
2018-09-16T00:32:55.452Z,1018.20
2018-09-16T00:33:55.412Z,1018.20
2018-09-16T00:34:55.397Z,1018.21
2018-09-16T00:35:55.386Z,1018.20
2018-09-16T00:36:55.357Z,1018.23
2018-09-16T00:37:55.340Z,1018.19
2018-09-16T00:38:55.320Z,1018.19
2018-09-16T00:39:55.321Z,1018.18
2018-09-16T00:40:55.306Z,1018.18
2018-09-16T00:41:55.268Z,1018.16
2018-09-16T00:42:55.255Z,1018.15
2018-09-16T00:43:55.229Z,1018.12
2018-09-16T00:44:55.223Z,1018.14
2018-09-16T00:45:55.196Z,1018.12
2018-09-16T00:46:55.207Z,1018.09
2018-09-16T00:47:55.156Z,1018.13
2018-09-16T00:48:55.133Z,1018.12
2018-09-16T00:49:55.120Z,1018.11
2018-09-16T00:50:55.098Z,1018.10
2018-09-16T00:51:55.081Z,1018.10
2018-09-16T00:52:55.060Z,1018.07
2018-09-16T00:53:55.044Z,1018.07
2018-09-16T00:54:55.023Z,1018.03
2018-09-16T00:55:55.005Z,1018.04
2018-09-16T00:56:54.987Z,1018.01
2018-09-16T00:57:54.967Z,1017.98
2018-09-16T00:58:54.957Z,1017.96
2018-09-16T00:59:54.933Z,1017.95
2018-09-16T01:00:54.921Z,1017.96
2018-09-16T01:01:54.902Z,1017.93
2018-09-16T01:02:54.881Z,1017.92
2018-09-16T01:03:54.858Z,1017.92
2018-09-16T01:04:54.837Z,1017.90
2018-09-16T01:05:54.823Z,1017.91
2018-09-16T01:06:54.802Z,1017.91
2018-09-16T01:07:54.783Z,1017.85
2018-09-16T01:08:54.764Z,1017.85
2018-09-16T01:09:54.749Z,1017.83
2018-09-16T01:10:54.734Z,1017.80
2018-09-16T01:11:54.708Z,1017.77
2018-09-16T01:12:54.689Z,1017.79
2018-09-16T01:13:54.674Z,1017.78
2018-09-16T01:14:54.655Z,1017.77
2018-09-16T01:15:54.636Z,1017.73
2018-09-16T01:16:54.615Z,1017.68
2018-09-16T01:17:54.597Z,1017.69
2018-09-16T01:18:54.578Z,1017.65
2018-09-16T01:19:54.568Z,1017.67
2018-09-16T01:20:54.541Z,1017.64
2018-09-16T01:21:54.530Z,1017.68
2018-09-16T01:22:54.505Z,1017.65
2018-09-16T01:23:54.487Z,1017.67
2018-09-16T01:24:54.466Z,1017.71
2018-09-16T01:25:54.453Z,1017.64
2018-09-16T01:26:54.430Z,1017.65
2018-09-16T01:27:54.411Z,1017.65
2018-09-16T01:28:54.392Z,1017.61
2018-09-16T01:29:54.382Z,1017.64
2018-09-16T01:30:54.355Z,1017.63
2018-09-16T01:31:54.338Z,1017.64
2018-09-16T01:32:54.317Z,1017.64
2018-09-16T01:33:54.324Z,1017.64
2018-09-16T01:34:54.280Z,1017.62
2018-09-16T01:35:54.262Z,1017.64
2018-09-16T01:36:54.242Z,1017.61
2018-09-16T01:37:54.233Z,1017.59
2018-09-16T01:38:54.206Z,1017.57
2018-09-16T01:39:54.188Z,1017.59
2018-09-16T01:40:54.168Z,1017.52
2018-09-16T01:41:54.169Z,1017.57
2018-09-16T01:42:54.131Z,1017.57
2018-09-16T01:43:54.118Z,1017.53
2018-09-16T01:44:54.096Z,1017.55
2018-09-16T01:45:54.078Z,1017.54
2018-09-16T01:46:54.057Z,1017.56
2018-09-16T01:47:54.042Z,1017.54
2018-09-16T01:48:54.019Z,1017.52
2018-09-16T01:49:54.008Z,1017.53
2018-09-16T01:50:53.983Z,1017.51
2018-09-16T01:51:53.980Z,1017.52
2018-09-16T01:52:53.943Z,1017.48
2018-09-16T01:53:53.939Z,1017.47
2018-09-16T01:54:53.907Z,1017.49
2018-09-16T01:55:53.889Z,1017.47
2018-09-16T01:56:53.870Z,1017.43
2018-09-16T01:57:53.851Z,1017.40
2018-09-16T01:58:53.834Z,1017.39
2018-09-16T01:59:53.816Z,1017.40
2018-09-16T02:00:53.794Z,1017.41
2018-09-16T02:01:53.775Z,1017.40
2018-09-16T02:02:53.758Z,1017.45
2018-09-16T02:03:53.740Z,1017.40
2018-09-16T02:04:53.719Z,1017.42
2018-09-16T02:05:53.716Z,1017.41
2018-09-16T02:06:53.683Z,1017.41
2018-09-16T02:07:53.666Z,1017.43
2018-09-16T02:08:53.646Z,1017.41
2018-09-16T02:09:53.627Z,1017.39
2018-09-16T02:10:53.608Z,1017.34
2018-09-16T02:11:53.593Z,1017.31
2018-09-16T02:12:53.574Z,1017.35
2018-09-16T02:13:53.553Z,1017.28
2018-09-16T02:14:53.532Z,1017.30
2018-09-16T02:15:53.518Z,1017.28
2018-09-16T02:16:53.495Z,1017.28
2018-09-16T02:17:53.477Z,1017.26
2018-09-16T02:18:53.458Z,1017.26
2018-09-16T02:19:53.443Z,1017.25
2018-09-16T02:20:53.424Z,1017.27
2018-09-16T02:21:53.403Z,1017.27
2018-09-16T02:22:53.383Z,1017.28
2018-09-16T02:23:53.375Z,1017.32
2018-09-16T02:24:53.349Z,1017.33
2018-09-16T02:25:53.327Z,1017.27
2018-09-16T02:26:53.307Z,1017.28
2018-09-16T02:27:53.297Z,1017.27
2018-09-16T02:28:53.271Z,1017.29
2018-09-16T02:29:53.254Z,1017.28
2018-09-16T02:30:53.232Z,1017.31
2018-09-16T02:31:53.221Z,1017.27
2018-09-16T02:32:53.197Z,1017.29
2018-09-16T02:33:53.178Z,1017.26
2018-09-16T02:34:53.159Z,1017.25
2018-09-16T02:35:53.138Z,1017.25
2018-09-16T02:36:53.120Z,1017.25
2018-09-16T02:37:53.105Z,1017.23
2018-09-16T02:38:53.082Z,1017.22
2018-09-16T02:39:53.064Z,1017.16
2018-09-16T02:40:53.045Z,1017.19
2018-09-16T02:41:53.025Z,1017.16
2018-09-16T02:42:53.007Z,1017.17
2018-09-16T02:43:52.987Z,1017.15
2018-09-16T02:44:52.969Z,1017.14
2018-09-16T02:45:52.951Z,1017.13
2018-09-16T02:46:52.931Z,1017.12
2018-09-16T02:47:52.914Z,1017.10
2018-09-16T02:48:52.893Z,1017.06
2018-09-16T02:49:52.873Z,1017.00
2018-09-16T02:50:52.861Z,1017.03
2018-09-16T02:51:52.836Z,1016.98
2018-09-16T02:52:52.822Z,1016.98
2018-09-16T02:53:52.800Z,1016.97
2018-09-16T02:54:52.783Z,1016.96
2018-09-16T02:55:52.763Z,1017.00
2018-09-16T02:56:52.756Z,1016.93
2018-09-16T02:57:52.725Z,1016.98
2018-09-16T02:58:52.725Z,1016.92
2018-09-16T02:59:52.686Z,1016.96
2018-09-16T03:00:52.677Z,1016.93
2018-09-16T03:01:52.647Z,1016.95
2018-09-16T03:02:52.634Z,1016.93
2018-09-16T03:03:52.609Z,1017.00
2018-09-16T03:04:52.594Z,1017.01
2018-09-16T03:05:52.573Z,1017.02
2018-09-16T03:06:52.554Z,1017.08
2018-09-16T03:07:52.533Z,1017.05
2018-09-16T03:08:52.522Z,1017.02
2018-09-16T03:09:52.497Z,1017.00
2018-09-16T03:10:52.478Z,1016.97
2018-09-16T03:11:52.632Z,1016.99
2018-09-16T03:12:52.445Z,1017.00
2018-09-16T03:13:52.420Z,1016.98
2018-09-16T03:14:52.404Z,1016.99
2018-09-16T03:15:52.384Z,1017.01
2018-09-16T03:16:52.398Z,1017.02
2018-09-16T03:17:52.353Z,1016.98
2018-09-16T03:18:52.400Z,1017.00
2018-09-16T03:19:52.312Z,1016.99
2018-09-16T03:20:52.461Z,1016.98
2018-09-16T03:21:52.268Z,1016.94
2018-09-16T03:22:52.250Z,1016.93
2018-09-16T03:23:52.232Z,1016.95
2018-09-16T03:24:52.216Z,1016.91
2018-09-16T03:25:52.192Z,1016.91
2018-09-16T03:26:52.178Z,1016.89
2018-09-16T03:27:52.159Z,1016.89
2018-09-16T03:28:52.178Z,1016.91
2018-09-16T03:29:52.116Z,1016.89
2018-09-16T03:30:52.098Z,1016.91
2018-09-16T03:31:52.080Z,1016.91
2018-09-16T03:32:52.061Z,1016.94
2018-09-16T03:33:52.042Z,1016.88
2018-09-16T03:34:52.023Z,1016.87
2018-09-16T03:35:52.004Z,1016.83
2018-09-16T03:36:51.989Z,1016.84
2018-09-16T03:37:51.966Z,1016.81
2018-09-16T03:38:51.952Z,1016.82
2018-09-16T03:39:51.930Z,1016.80
2018-09-16T03:40:51.930Z,1016.79
2018-09-16T03:41:51.889Z,1016.78
2018-09-16T03:42:51.871Z,1016.76
2018-09-16T03:43:51.859Z,1016.76
2018-09-16T03:44:51.835Z,1016.75
2018-09-16T03:45:51.813Z,1016.73
2018-09-16T03:46:51.806Z,1016.76
2018-09-16T03:47:51.775Z,1016.71
2018-09-16T03:48:51.755Z,1016.74
2018-09-16T03:49:51.741Z,1016.74
2018-09-16T03:50:51.774Z,1016.67
2018-09-16T03:51:51.699Z,1016.72
2018-09-16T03:52:51.695Z,1016.70
2018-09-16T03:53:51.668Z,1016.66
2018-09-16T03:54:51.646Z,1016.66
2018-09-16T03:55:51.623Z,1016.64
2018-09-16T03:56:51.612Z,1016.65
2018-09-16T03:57:51.588Z,1016.64
2018-09-16T03:58:51.596Z,1016.62
2018-09-16T03:59:51.547Z,1016.66
2018-09-16T04:00:51.539Z,1016.63
2018-09-16T04:01:51.510Z,1016.66
2018-09-16T04:02:51.489Z,1016.66
2018-09-16T04:03:51.470Z,1016.67
2018-09-16T04:04:51.466Z,1016.70
2018-09-16T04:05:51.430Z,1016.68
2018-09-16T04:06:51.412Z,1016.72
2018-09-16T04:07:51.398Z,1016.70
2018-09-16T04:08:51.390Z,1016.74
2018-09-16T04:09:51.353Z,1016.79
2018-09-16T04:10:51.337Z,1016.75
2018-09-16T04:11:51.318Z,1016.74
2018-09-16T04:12:51.301Z,1016.74
2018-09-16T04:13:51.297Z,1016.74
2018-09-16T04:14:51.260Z,1016.77
2018-09-16T04:15:51.242Z,1016.78
2018-09-16T04:16:51.222Z,1016.73
2018-09-16T04:17:51.207Z,1016.77
2018-09-16T04:18:51.183Z,1016.81
2018-09-16T04:19:51.165Z,1016.77
2018-09-16T04:20:51.165Z,1016.78
2018-09-16T04:21:51.133Z,1016.78
2018-09-16T04:22:51.106Z,1016.79
2018-09-16T04:23:51.088Z,1016.80
2018-09-16T04:24:51.066Z,1016.79
2018-09-16T04:25:51.050Z,1016.78
2018-09-16T04:26:51.033Z,1016.78
2018-09-16T04:27:51.011Z,1016.79
2018-09-16T04:28:50.996Z,1016.81
2018-09-16T04:29:50.973Z,1016.83
2018-09-16T04:30:50.955Z,1016.85
2018-09-16T04:31:50.936Z,1016.82
2018-09-16T04:32:50.917Z,1016.83
2018-09-16T04:33:50.895Z,1016.85
2018-09-16T04:34:50.876Z,1016.83
2018-09-16T04:35:50.858Z,1016.85
2018-09-16T04:36:50.841Z,1016.83
2018-09-16T04:37:50.833Z,1016.86
2018-09-16T04:38:50.811Z,1016.88
2018-09-16T04:39:50.782Z,1016.89
2018-09-16T04:40:50.764Z,1016.86
2018-09-16T04:41:50.740Z,1016.90
2018-09-16T04:42:50.725Z,1016.90
2018-09-16T04:43:50.704Z,1016.87
2018-09-16T04:44:50.720Z,1016.90
2018-09-16T04:45:50.667Z,1016.93
2018-09-16T04:46:50.652Z,1016.93
2018-09-16T04:47:50.625Z,1016.92
2018-09-16T04:48:50.606Z,1016.96
2018-09-16T04:49:50.602Z,1016.95
2018-09-16T04:50:50.570Z,1016.96
2018-09-16T04:51:50.558Z,1016.96
2018-09-16T04:52:50.532Z,1016.96
2018-09-16T04:53:50.534Z,1016.95
2018-09-16T04:54:50.492Z,1016.96
2018-09-16T04:55:50.477Z,1016.97
2018-09-16T04:56:50.452Z,1016.96
2018-09-16T04:57:50.436Z,1016.94
2018-09-16T04:58:50.415Z,1016.94
2018-09-16T04:59:50.396Z,1016.90
2018-09-16T05:00:50.375Z,1016.89
2018-09-16T05:01:50.356Z,1016.89
2018-09-16T05:02:50.338Z,1016.91
2018-09-16T05:03:50.328Z,1016.94
2018-09-16T05:04:50.299Z,1016.93
2018-09-16T05:05:50.288Z,1016.98
2018-09-16T05:06:50.264Z,1016.98
2018-09-16T05:07:50.243Z,1017.02
2018-09-16T05:08:50.221Z,1017.02
2018-09-16T05:09:50.204Z,1016.99
2018-09-16T05:10:50.182Z,1016.96
2018-09-16T05:11:50.181Z,1016.96
2018-09-16T05:12:50.144Z,1016.94
2018-09-16T05:13:50.133Z,1016.99
2018-09-16T05:14:50.107Z,1016.94
2018-09-16T05:15:50.101Z,1016.98
2018-09-16T05:16:50.072Z,1016.94
2018-09-16T05:17:50.054Z,1016.97
2018-09-16T05:18:50.280Z,1016.97
2018-09-16T05:19:50.020Z,1016.98
2018-09-16T05:20:49.991Z,1016.97
2018-09-16T05:21:49.978Z,1017.01
2018-09-16T05:22:49.952Z,1017.00
2018-09-16T05:23:49.934Z,1017.00
2018-09-16T05:24:49.915Z,1016.99
2018-09-16T05:25:49.891Z,1016.97
2018-09-16T05:26:49.872Z,1017.00
2018-09-16T05:27:49.854Z,1016.99
2018-09-16T05:28:49.834Z,1016.99
2018-09-16T05:29:49.819Z,1016.95
2018-09-16T05:30:49.801Z,1016.99
2018-09-16T05:31:49.776Z,1016.97
2018-09-16T05:32:49.758Z,1016.97
2018-09-16T05:33:49.742Z,1016.99
2018-09-16T05:34:49.723Z,1017.00
2018-09-16T05:35:49.738Z,1016.98
2018-09-16T05:36:49.680Z,1016.99
2018-09-16T05:37:49.662Z,1017.00
2018-09-16T05:38:49.643Z,1017.04
2018-09-16T05:39:49.624Z,1017.05
2018-09-16T05:40:49.601Z,1017.01
2018-09-16T05:41:49.586Z,1017.05
2018-09-16T05:42:49.592Z,1017.09
2018-09-16T05:43:49.545Z,1017.08
2018-09-16T05:44:49.524Z,1017.13
2018-09-16T05:45:49.516Z,1017.15
2018-09-16T05:46:49.489Z,1017.13
2018-09-16T05:47:49.468Z,1017.15
2018-09-16T05:48:49.449Z,1017.15
2018-09-16T05:49:49.428Z,1017.14
2018-09-16T05:50:49.414Z,1017.13
2018-09-16T05:51:49.389Z,1017.15
2018-09-16T05:52:49.430Z,1017.14
2018-09-16T05:53:49.359Z,1017.13
2018-09-16T05:54:49.333Z,1017.11
2018-09-16T05:55:49.313Z,1017.11
2018-09-16T05:56:49.294Z,1017.08
2018-09-16T05:57:49.275Z,1017.09
2018-09-16T05:58:49.254Z,1017.07
2018-09-16T05:59:49.236Z,1017.08
2018-09-16T06:00:49.217Z,1017.03
2018-09-16T06:01:49.197Z,1017.04
2018-09-16T06:02:49.178Z,1017.04
2018-09-16T06:03:49.157Z,1017.07
2018-09-16T06:04:49.141Z,1017.05
2018-09-16T06:05:49.121Z,1017.03
2018-09-16T06:06:49.101Z,1017.02
2018-09-16T06:07:49.083Z,1017.07
2018-09-16T06:08:49.064Z,1017.05
2018-09-16T06:09:49.044Z,1017.06
2018-09-16T06:10:49.029Z,1017.02
2018-09-16T06:11:49.005Z,1017.05
2018-09-16T06:12:48.990Z,1017.06
2018-09-16T06:13:48.967Z,1017.05
2018-09-16T06:14:48.949Z,1017.05
2018-09-16T06:15:48.928Z,1017.05
2018-09-16T06:16:48.908Z,1017.04
2018-09-16T06:17:48.900Z,1017.03
2018-09-16T06:18:48.869Z,1017.05
2018-09-16T06:19:48.855Z,1017.03
2018-09-16T06:20:48.833Z,1017.05
2018-09-16T06:21:48.814Z,1017.02
2018-09-16T06:22:48.844Z,1017.04
2018-09-16T06:23:48.823Z,1017.03
2018-09-16T06:24:48.754Z,1017.03
2018-09-16T06:25:48.753Z,1017.01
2018-09-16T06:26:48.717Z,1017.00
2018-09-16T06:27:48.700Z,1017.02
2018-09-16T06:28:48.677Z,1017.00
2018-09-16T06:29:48.665Z,1017.01
2018-09-16T06:30:48.642Z,1017.02
2018-09-16T06:31:48.692Z,1017.03
2018-09-16T06:32:48.600Z,1017.01
2018-09-16T06:33:48.627Z,1017.03
2018-09-16T06:34:48.563Z,1017.01
2018-09-16T06:35:48.545Z,1016.97
2018-09-16T06:36:48.534Z,1017.00
2018-09-16T06:37:48.518Z,1017.01
2018-09-16T06:38:48.492Z,1017.00
2018-09-16T06:39:48.471Z,1017.00
2018-09-16T06:40:48.451Z,1016.97
2018-09-16T06:41:48.432Z,1016.96
2018-09-16T06:42:48.412Z,1016.94
2018-09-16T06:43:48.392Z,1016.89
2018-09-16T06:44:48.373Z,1016.88
2018-09-16T06:45:48.369Z,1016.91
2018-09-16T06:46:48.334Z,1016.92
2018-09-16T06:47:48.320Z,1016.94
2018-09-16T06:48:48.300Z,1016.92
2018-09-16T06:49:48.300Z,1016.96
2018-09-16T06:50:48.266Z,1016.94
2018-09-16T06:51:48.247Z,1016.99
2018-09-16T06:52:48.226Z,1017.02
2018-09-16T06:53:48.203Z,1017.00
2018-09-16T06:54:48.185Z,1016.97
2018-09-16T06:55:48.167Z,1016.95
2018-09-16T06:56:48.146Z,1016.94
2018-09-16T06:57:48.127Z,1016.94
2018-09-16T06:58:48.128Z,1016.90
2018-09-16T06:59:48.088Z,1016.91
2018-09-16T07:00:48.250Z,1016.91
2018-09-16T07:01:48.051Z,1016.91
2018-09-16T07:02:48.031Z,1016.93
2018-09-16T07:03:48.013Z,1016.93
2018-09-16T07:04:48.004Z,1016.93
2018-09-16T07:05:47.977Z,1016.97
2018-09-16T07:06:47.997Z,1016.94
2018-09-16T07:07:47.937Z,1016.93
2018-09-16T07:08:47.921Z,1016.94
2018-09-16T07:09:47.901Z,1016.93
2018-09-16T07:10:47.883Z,1016.91
2018-09-16T07:11:47.863Z,1016.93
2018-09-16T07:12:47.848Z,1016.91
2018-09-16T07:13:47.828Z,1016.98
2018-09-16T07:14:47.808Z,1016.95
2018-09-16T07:15:47.788Z,1016.99
2018-09-16T07:16:47.770Z,1016.96
2018-09-16T07:17:47.748Z,1016.92
2018-09-16T07:18:47.752Z,1016.93
2018-09-16T07:19:47.712Z,1016.94
2018-09-16T07:20:47.702Z,1016.95
2018-09-16T07:21:47.696Z,1016.95
2018-09-16T07:22:47.660Z,1016.93
2018-09-16T07:23:47.723Z,1016.91
2018-09-16T07:24:47.617Z,1016.92
2018-09-16T07:25:47.608Z,1016.88
2018-09-16T07:26:47.620Z,1016.88
2018-09-16T07:27:47.565Z,1016.85
2018-09-16T07:28:47.549Z,1016.91
2018-09-16T07:29:47.529Z,1016.89
2018-09-16T07:30:47.519Z,1016.90
2018-09-16T07:31:47.488Z,1016.89
2018-09-16T07:32:47.470Z,1016.91
2018-09-16T07:33:47.510Z,1016.90
2018-09-16T07:34:47.447Z,1016.93
2018-09-16T07:35:47.412Z,1016.92
2018-09-16T07:36:47.402Z,1016.90
2018-09-16T07:37:47.375Z,1016.90
2018-09-16T07:38:47.372Z,1016.88
2018-09-16T07:39:47.340Z,1016.89
2018-09-16T07:40:47.318Z,1016.88
2018-09-16T07:41:47.300Z,1016.87
2018-09-16T07:42:47.290Z,1016.90
2018-09-16T07:43:47.267Z,1016.92
2018-09-16T07:44:47.274Z,1016.94
2018-09-16T07:45:47.230Z,1016.96
2018-09-16T07:46:47.244Z,1016.91
2018-09-16T07:47:47.192Z,1016.98
2018-09-16T07:48:47.171Z,1016.96
2018-09-16T07:49:47.167Z,1016.96
2018-09-16T07:50:47.153Z,1016.92
2018-09-16T07:51:47.117Z,1016.93
2018-09-16T07:52:47.145Z,1016.88
2018-09-16T07:53:47.078Z,1016.87
2018-09-16T07:54:47.061Z,1016.89
2018-09-16T07:55:47.061Z,1016.88
2018-09-16T07:56:47.026Z,1016.86
2018-09-16T07:57:47.008Z,1016.86
2018-09-16T07:58:47.057Z,1016.91
2018-09-16T07:59:46.969Z,1016.89
2018-09-16T08:00:47.048Z,1016.88
2018-09-16T08:01:46.933Z,1016.90
2018-09-16T08:02:46.918Z,1016.91
2018-09-16T08:03:46.898Z,1016.92
2018-09-16T08:04:46.875Z,1016.90
2018-09-16T08:05:46.876Z,1016.91
2018-09-16T08:06:46.846Z,1016.90
2018-09-16T08:07:46.822Z,1016.91
2018-09-16T08:08:46.804Z,1016.94
2018-09-16T08:09:46.785Z,1016.95
2018-09-16T08:10:46.774Z,1016.93
2018-09-16T08:11:46.747Z,1016.90
2018-09-16T08:12:46.728Z,1016.93
2018-09-16T08:13:46.774Z,1016.86
2018-09-16T08:14:46.724Z,1016.88
2018-09-16T08:15:46.677Z,1016.87
2018-09-16T08:16:46.655Z,1016.87
2018-09-16T08:17:46.643Z,1016.84
2018-09-16T08:18:46.630Z,1016.86
2018-09-16T08:19:46.607Z,1016.88
2018-09-16T08:20:46.594Z,1016.91
2018-09-16T08:21:46.567Z,1016.94
2018-09-16T08:22:46.562Z,1016.96
2018-09-16T08:23:46.537Z,1016.95
2018-09-16T08:24:46.521Z,1016.94
2018-09-16T08:25:46.494Z,1016.96
2018-09-16T08:26:46.510Z,1016.95
2018-09-16T08:27:46.461Z,1016.97
2018-09-16T08:28:46.442Z,1016.97
2018-09-16T08:29:46.418Z,1016.99
2018-09-16T08:30:46.404Z,1016.97
2018-09-16T08:31:46.388Z,1016.95
2018-09-16T08:32:46.371Z,1016.94
2018-09-16T08:33:46.345Z,1016.96
2018-09-16T08:34:46.347Z,1016.93
2018-09-16T08:35:46.310Z,1016.94
2018-09-16T08:36:46.293Z,1016.99
2018-09-16T08:37:46.370Z,1016.95
2018-09-16T08:38:46.261Z,1016.97
2018-09-16T08:39:46.581Z,1016.91
2018-09-16T08:40:46.219Z,1016.94
2018-09-16T08:41:46.201Z,1016.89
2018-09-16T08:42:46.184Z,1016.91
2018-09-16T08:43:46.169Z,1016.91
2018-09-16T08:44:46.146Z,1016.90
2018-09-16T08:45:46.175Z,1016.93
2018-09-16T08:46:46.123Z,1016.87
2018-09-16T08:47:46.094Z,1016.87
2018-09-16T08:48:46.076Z,1016.88
2018-09-16T08:49:46.058Z,1016.85
2018-09-16T08:50:46.046Z,1016.82
2018-09-16T08:51:46.056Z,1016.82
2018-09-16T08:52:46.005Z,1016.80
2018-09-16T08:53:45.986Z,1016.78
2018-09-16T08:54:45.975Z,1016.82
2018-09-16T08:55:45.952Z,1016.79
2018-09-16T08:56:45.953Z,1016.74
2018-09-16T08:57:45.917Z,1016.72
2018-09-16T08:58:46.433Z,1016.71
2018-09-16T08:59:45.886Z,1016.70
2018-09-16T09:00:45.861Z,1016.69
2018-09-16T09:01:45.856Z,1016.67
2018-09-16T09:02:45.832Z,1016.66
2018-09-16T09:03:45.813Z,1016.64
2018-09-16T09:04:45.794Z,1016.66
2018-09-16T09:05:45.776Z,1016.68
2018-09-16T09:06:45.757Z,1016.69
2018-09-16T09:07:45.744Z,1016.64
2018-09-16T09:08:46.145Z,1016.63
2018-09-16T09:09:45.713Z,1016.63
2018-09-16T09:10:45.690Z,1016.66
2018-09-16T09:11:45.696Z,1016.67
2018-09-16T09:12:45.659Z,1016.66
2018-09-16T09:13:45.652Z,1016.68
2018-09-16T09:14:45.616Z,1016.61
2018-09-16T09:15:45.900Z,1016.62
2018-09-16T09:16:45.580Z,1016.61
2018-09-16T09:17:45.565Z,1016.57
2018-09-16T09:18:45.554Z,1016.62
2018-09-16T09:19:45.548Z,1016.56
2018-09-16T09:20:45.516Z,1016.59
2018-09-16T09:21:45.496Z,1016.57
2018-09-16T09:22:45.477Z,1016.55
2018-09-16T09:23:45.463Z,1016.54
2018-09-16T09:24:45.494Z,1016.57
2018-09-16T09:25:45.424Z,1016.53
2018-09-16T09:26:45.412Z,1016.56
2018-09-16T09:27:45.388Z,1016.52
2018-09-16T09:28:45.374Z,1016.53
2018-09-16T09:29:45.353Z,1016.47
2018-09-16T09:30:45.336Z,1016.53
2018-09-16T09:31:45.320Z,1016.56
2018-09-16T09:32:45.323Z,1016.57
2018-09-16T09:33:45.284Z,1016.54
2018-09-16T09:34:45.273Z,1016.55
2018-09-16T09:35:45.306Z,1016.54
2018-09-16T09:36:45.246Z,1016.55
2018-09-16T09:37:45.217Z,1016.53
2018-09-16T09:38:45.221Z,1016.51
2018-09-16T09:39:45.182Z,1016.49
2018-09-16T09:40:45.170Z,1016.47
2018-09-16T09:41:45.146Z,1016.46
2018-09-16T09:42:45.148Z,1016.47
2018-09-16T09:43:45.112Z,1016.47
2018-09-16T09:44:45.098Z,1016.42
2018-09-16T09:45:45.113Z,1016.42
2018-09-16T09:46:45.067Z,1016.46
2018-09-16T09:47:45.042Z,1016.43
2018-09-16T09:48:45.029Z,1016.44
2018-09-16T09:49:45.393Z,1016.43
2018-09-16T09:50:44.990Z,1016.40
2018-09-16T09:51:44.991Z,1016.44
2018-09-16T09:52:44.955Z,1016.41
2018-09-16T09:53:44.957Z,1016.46
2018-09-16T09:54:44.921Z,1016.42
2018-09-16T09:55:44.918Z,1016.38
2018-09-16T09:56:44.887Z,1016.43
2018-09-16T09:57:44.884Z,1016.40
2018-09-16T09:58:44.854Z,1016.42
2018-09-16T09:59:44.840Z,1016.43
2018-09-16T10:00:44.841Z,1016.35
2018-09-16T10:01:44.805Z,1016.33
2018-09-16T10:02:44.783Z,1016.37
2018-09-16T10:03:44.770Z,1016.34
2018-09-16T10:04:44.752Z,1016.40
2018-09-16T10:05:44.731Z,1016.40
2018-09-16T10:06:44.723Z,1016.38
2018-09-16T10:07:44.704Z,1016.41
2018-09-16T10:08:44.684Z,1016.40
2018-09-16T10:09:44.663Z,1016.40
2018-09-16T10:10:44.651Z,1016.36
2018-09-16T10:11:44.630Z,1016.39
2018-09-16T10:12:44.623Z,1016.36
2018-09-16T10:13:44.648Z,1016.36
2018-09-16T10:14:44.582Z,1016.38
2018-09-16T10:15:44.588Z,1016.37
2018-09-16T10:16:44.552Z,1016.33
2018-09-16T10:17:44.533Z,1016.30
2018-09-16T10:18:44.516Z,1016.28
2018-09-16T10:19:44.494Z,1016.26
2018-09-16T10:20:44.482Z,1016.32
2018-09-16T10:21:44.461Z,1016.26
2018-09-16T10:22:44.494Z,1016.24
2018-09-16T10:23:44.428Z,1016.24
2018-09-16T10:24:44.409Z,1016.17
2018-09-16T10:25:44.394Z,1016.20
2018-09-16T10:26:44.404Z,1016.20
2018-09-16T10:27:44.365Z,1016.16
2018-09-16T10:28:44.346Z,1016.15
2018-09-16T10:29:44.327Z,1016.14
2018-09-16T10:30:44.310Z,1016.12
2018-09-16T10:31:44.296Z,1016.06
2018-09-16T10:32:44.281Z,1016.12
2018-09-16T10:33:44.261Z,1016.12
2018-09-16T10:34:44.244Z,1016.13
2018-09-16T10:35:44.228Z,1016.11
2018-09-16T10:36:44.210Z,1016.11
2018-09-16T10:37:44.201Z,1016.10
2018-09-16T10:38:44.222Z,1016.09
2018-09-16T10:39:44.219Z,1016.20
2018-09-16T10:40:44.144Z,1016.12
2018-09-16T10:41:44.129Z,1016.10
2018-09-16T10:42:44.115Z,1016.14
2018-09-16T10:43:44.183Z,1016.16
2018-09-16T10:44:44.076Z,1016.10
2018-09-16T10:45:44.059Z,1016.13
2018-09-16T10:46:44.042Z,1016.06
2018-09-16T10:47:44.096Z,1016.03
2018-09-16T10:48:44.070Z,1016.06
2018-09-16T10:49:44.038Z,1016.05
2018-09-16T10:50:43.977Z,1016.07
2018-09-16T10:51:44.068Z,1016.06
2018-09-16T10:52:43.944Z,1016.02
2018-09-16T10:53:44.913Z,1016.01
2018-09-16T10:54:43.982Z,1016.06
2018-09-16T10:55:43.900Z,1016.07
2018-09-16T10:56:43.880Z,1016.07
2018-09-16T10:57:43.863Z,1016.09
2018-09-16T10:58:43.847Z,1016.02
2018-09-16T10:59:43.848Z,1016.04
2018-09-16T11:00:46.537Z,1016.10
2018-09-16T11:01:43.802Z,1016.08
2018-09-16T11:02:43.779Z,1016.10
2018-09-16T11:03:43.845Z,1016.08
2018-09-16T11:04:43.748Z,1016.10
2018-09-16T11:05:43.807Z,1016.00
2018-09-16T11:06:44.173Z,1016.10
2018-09-16T11:07:43.709Z,1016.01
2018-09-16T11:08:43.684Z,1016.07
2018-09-16T11:09:43.876Z,1016.02
2018-09-16T11:10:43.688Z,1016.02
2018-09-16T11:11:43.635Z,1015.99
2018-09-16T11:12:43.622Z,1016.02
2018-09-16T11:13:43.600Z,1015.95
2018-09-16T11:14:43.632Z,1015.89
2018-09-16T11:15:43.606Z,1015.92
2018-09-16T11:16:43.551Z,1015.93
2018-09-16T11:17:43.537Z,1015.91
2018-09-16T11:18:43.517Z,1015.91
2018-09-16T11:19:43.504Z,1015.89
2018-09-16T11:20:43.486Z,1015.88
2018-09-16T11:21:43.501Z,1015.86
2018-09-16T11:22:43.479Z,1015.85
2018-09-16T11:23:43.460Z,1015.82
2018-09-16T11:24:43.423Z,1015.87
2018-09-16T11:25:43.443Z,1015.86
2018-09-16T11:26:43.392Z,1015.77
2018-09-16T11:27:43.461Z,1015.77
2018-09-16T11:28:43.358Z,1015.84
2018-09-16T11:29:43.374Z,1015.74
2018-09-16T11:30:43.388Z,1015.71
2018-09-16T11:31:43.309Z,1015.69
2018-09-16T11:32:43.354Z,1015.62
2018-09-16T11:33:43.286Z,1015.62
2018-09-16T11:34:43.267Z,1015.65
2018-09-16T11:35:43.256Z,1015.65
2018-09-16T11:36:43.229Z,1015.72
2018-09-16T11:37:43.211Z,1015.63
2018-09-16T11:38:43.196Z,1015.59
2018-09-16T11:39:43.178Z,1015.59
2018-09-16T11:40:43.277Z,1015.59
2018-09-16T11:41:43.150Z,1015.61
2018-09-16T11:42:43.200Z,1015.58
2018-09-16T11:43:43.119Z,1015.56
2018-09-16T11:44:43.100Z,1015.56
2018-09-16T11:45:43.085Z,1015.55
2018-09-16T11:46:43.121Z,1015.53
2018-09-16T11:47:43.050Z,1015.48
2018-09-16T11:48:43.034Z,1015.46
2018-09-16T11:49:43.018Z,1015.48
2018-09-16T11:50:43.024Z,1015.51
2018-09-16T11:51:43.063Z,1015.55
2018-09-16T11:52:42.968Z,1015.46
2018-09-16T11:53:42.963Z,1015.50
2018-09-16T11:54:42.938Z,1015.53
2018-09-16T11:55:42.922Z,1015.48
2018-09-16T11:56:42.914Z,1015.48
2018-09-16T11:57:42.893Z,1015.50
2018-09-16T11:58:42.941Z,1015.52
2018-09-16T11:59:42.871Z,1015.47
2018-09-16T12:00:42.844Z,1015.50
2018-09-16T12:01:42.836Z,1015.42
2018-09-16T12:02:42.814Z,1015.47
2018-09-16T12:03:42.797Z,1015.43
2018-09-16T12:04:42.781Z,1015.41
2018-09-16T12:05:42.772Z,1015.39